Hub


Voltar

 INFORMAÇÕES METEOROLÓGICAS

METAR FOR KBYH


ADDS - METARS form results

(1327 UTC 27 June 2019)
Data provider http://aviationweather.gov/metar/data/
 
METAR text: KBYH 271259Z 36003KT 4SM -TSRA BR SCT009 BKN019 OVC070 20/18 A3025 RMK OCNL LTG ICCCCACG ALQDS TSB/40 TS OHD MOV S
Conditions at: KBYH (BLYTHEVILLE , AR, US) observed 1259 UTC 27 June 2019
Temperature: 20.0°C (68°F)
Dewpoint: 18.0°C (64°F) [RH = 88%]
Pressure (altimeter): 30.25 inches Hg (1024.5 mb)
Winds: from the N (360 degrees) at 3 MPH (3 knots; 1.5 m/s)
Visibility: 4 miles ( 6 km)
Ceiling: 1900 feet AGL
Clouds: scattered clouds at 900 feet AGL
broken clouds at 1900 feet AGL
overcast cloud deck at 7000 feet AGL
Weather: -TSRA BR  (light rain associated with thunderstorm(s), mist)


 MAPA DO AEROPORTO


 INFORMAÇÕES DA PISTA

Pista 18 Tamanho da pista 11602 ft Largura da pista 150 ft
Elevação da pista 250 ft Ranhura da pista 0 ft Proa da pista 180
Pista 36 Tamanho da pista 11602 ft Largura da pista 150 ft
Elevação da pista 252 ft Ranhura da pista 0 ft Proa da pista 360

 FREQUÊNCIAS DO AEROPORTO

Tipo CNTR Nome MEMPHIS CN Frequência 134.65 MHZ
Tipo UNIC Nome CTAF/UNICO Frequência 122.7 MHZ

 AUXÍLIOS DE NAVEGAÇÃO PRÓXIMOS AO AEROPORTO

Tipo VOR Nome Gosnell Frequência 111800 KHZ